»·PEaware :: N171CP L88-KSBP

N171CP :: L88-KSBP

FLIGHT INFORMATION

Flight Status: Arrived
Operator: Privately registered:
United States
More flights under this callsign
Pilot: Dwight D. (26772)
Aircraft: CESSNA 172 SKYHAWK
(C172)
More flights by this aircraft type
Origin: L88 New Cuyama
United States
Destination: KSBP San Luis Co Regl
United States
More flights between these airports :: More routes between these airports
Route:
File this flight plan on PilotEdge
Remarks:
Altitude:
(Current/Filed)
5,500ft
Speed:
(Current/Filed)
110kts
Departed: 30-Nov-19 09:44 AM
Arrived: 30-Nov-19 10:34 AM
Distance/Time
Traveled:
50nm/0:50
Distance/Time
To Go:
Arrived

Flight Plot

Page will automatically refresh every two minutes.


Map Options




Map Legend


Flown Route
Filed Route
Departure Airport
Arrival Airport
Navaid (VOR, NDB)
Fix

Horizontal Profiles

Position Reports

Time Latitude Longitude Heading Altitude Ground
Speed
30-Nov-19 09:34 34.935271 -119.682699 295 2206ft 0kts
30-Nov-19 09:35 34.935271 -119.682700 295 2206ft 0kts
30-Nov-19 09:36 34.935271 -119.682700 295 2206ft 0kts
30-Nov-19 09:37 34.935271 -119.682701 295 2206ft 0kts
30-Nov-19 09:38 34.935271 -119.682701 295 2206ft 0kts
30-Nov-19 09:39 34.935271 -119.682702 295 2206ft 0kts
30-Nov-19 09:40 34.935272 -119.682702 295 2206ft 0kts
30-Nov-19 09:41 34.935272 -119.682702 295 2206ft 0kts
30-Nov-19 09:42 34.935272 -119.682703 295 2206ft 0kts
30-Nov-19 09:43 34.939848 -119.695386 291 2602ft 53kts
30-Nov-19 09:44 34.945175 -119.714102 288 3214ft 61kts
30-Nov-19 09:45 34.943880 -119.735940 261 3951ft 66kts
30-Nov-19 09:46 34.952102 -119.753323 309 4645ft 61kts
30-Nov-19 09:47 34.962495 -119.768930 294 5319ft 57kts
30-Nov-19 09:48 34.969889 -119.791270 290 5530ft 92kts
30-Nov-19 09:49 34.979712 -119.822115 290 5496ft 95kts
30-Nov-19 09:50 34.989557 -119.853096 290 5500ft 99kts
30-Nov-19 09:51 34.999580 -119.884666 290 5500ft 99kts
30-Nov-19 09:52 35.009598 -119.916255 290 5500ft 99kts
30-Nov-19 09:53 35.019586 -119.947784 290 5500ft 99kts
30-Nov-19 09:54 35.029589 -119.979395 290 5500ft 99kts
30-Nov-19 10:01 34.966586 -119.761087 298 3364ft 85kts
30-Nov-19 10:02 34.976331 -119.785353 297 4025ft 78kts
30-Nov-19 10:03 34.985660 -119.808629 296 4708ft 73kts
30-Nov-19 10:04 34.994253 -119.829991 294 5372ft 68kts
30-Nov-19 10:05 35.002467 -119.855753 289 5514ft 96kts
30-Nov-19 10:06 35.011875 -119.887148 289 5500ft 99kts
30-Nov-19 10:07 35.021512 -119.919090 289 5500ft 99kts
30-Nov-19 10:08 35.031089 -119.950860 289 5500ft 99kts
30-Nov-19 10:09 35.040676 -119.982701 289 5500ft 99kts
30-Nov-19 10:10 35.050235 -120.014481 289 5500ft 99kts
30-Nov-19 10:11 35.058839 -120.046507 283 5500ft 99kts
30-Nov-19 10:12 35.064364 -120.079853 280 5500ft 99kts
30-Nov-19 10:13 35.069997 -120.112720 297 5498ft 100kts
30-Nov-19 10:14 35.093397 -120.127471 327 5669ft 100kts
30-Nov-19 10:15 35.116100 -120.148870 303 5491ft 100kts
30-Nov-19 10:16 35.132329 -120.176606 297 5499ft 100kts
30-Nov-19 10:17 35.142088 -120.208346 289 5500ft 99kts
30-Nov-19 10:18 35.151528 -120.240141 289 5500ft 99kts
30-Nov-19 10:19 35.160962 -120.271859 289 5500ft 99kts
30-Nov-19 10:20 35.170502 -120.303921 289 5500ft 99kts
30-Nov-19 10:21 35.180022 -120.335915 289 5500ft 99kts
30-Nov-19 10:22 35.189524 -120.367848 289 5500ft 99kts
30-Nov-19 10:23 35.199027 -120.399787 289 5500ft 99kts
30-Nov-19 10:24 35.202204 -120.433912 275 5356ft 109kts
30-Nov-19 10:25 35.204071 -120.472992 275 4776ft 119kts
30-Nov-19 10:26 35.205704 -120.514138 275 4179ft 122kts
30-Nov-19 10:27 35.206974 -120.553418 275 3541ft 101kts
30-Nov-19 10:28 35.213255 -120.585157 295 2869ft 88kts
30-Nov-19 10:29 35.224562 -120.611299 305 1819ft 85kts
30-Nov-19 10:30 35.238917 -120.634901 309 1109ft 82kts
30-Nov-19 10:31 35.251699 -120.655116 293 693ft 66kts
30-Nov-19 10:32 35.244797 -120.656866 96 482ft 63kts
30-Nov-19 10:33 35.238216 -120.641697 16 215ft 10kts
30-Nov-19 10:34 35.238307 -120.641475 82 215ft 0kts
30-Nov-19 10:35 35.235904 -120.636322 122 215ft 35kts
30-Nov-19 10:36 35.233361 -120.631418 339 215ft 0kts
30-Nov-19 10:37 35.233361 -120.631418 339 215ft 0kts
30-Nov-19 10:38 35.233361 -120.631419 339 215ft 0kts
30-Nov-19 10:39 35.233361 -120.631419 339 215ft 0kts

Navigation Log

Ident Type
Flight plan parsing failed, navigation log unavailable